72VA weather

Inova Fairfax Hospital Heliport
Fairfax, Virginia, United States

Public forecast

Using degrees Fahrenheit for public forecast. Weather courtesy of forecast.io.

METAR (pilot weather report)

Closest report is Davison Army Air Field, 8.8 nm (16.3 km) SSE. Retrieved 2019/05/21 08:56 UTC (8 minutes ago):

KDAA 210856Z AUTO 33004KT 10SM CLR 18/10 A2994 RMK AO2 SLP141 T01840097 52017 $

TAF (pilot weather forecast)

Closest forecast is Davison Army Air Field, 8.8 nm (16.3 km) SSE. Retrieved 2019/05/21 09:06 UTC (0 seconds ago):

TAF KDAA 210900Z 2109/2215 32009KT 9999 SKC QNH2992INS BECMG 2111/2112 32010G15KT 9999 FEW035 QNH3002INS BECMG 2123/2124 33006KT 9999 SCT120 QNH3005INS TX21/2121Z TN12/2209Z